Time;durP1;ratioP1;P1;durP2;ratioP2;P2;SDS_P1;SDS_P2;PMS_P1;PMS_P2;Temp;Humidity;BMP_temperature;BMP_pressure;BME280_temperature;BME280_humidity;BME280_pressure;Samples;Min_cycle;Max_cycle;Signal;HPM_P1;HPM_P2
2021/06/06 00:01:39;;;;;;;12.60;11.53;;;;;;;17.21;100.00;100901.16;4972017;28;20620;-73
2021/06/06 00:04:07;;;;;;;15.73;12.90;;;;;;;17.21;100.00;100900.31;4972155;28;20184;-72
2021/06/06 00:06:35;;;;;;;12.90;11.77;;;;;;;17.18;100.00;100901.00;4972051;28;20205;-72
2021/06/06 00:09:02;;;;;;;18.00;13.07;;;;;;;17.16;100.00;100900.53;4971962;28;20178;-73
2021/06/06 00:11:33;;;;;;;13.73;12.63;;;;;;;17.12;100.00;100897.69;4971989;28;20188;-73
2021/06/06 00:14:02;;;;;;;16.10;14.60;;;;;;;17.16;100.00;100895.84;4970555;28;20528;-73
2021/06/06 00:16:31;;;;;;;15.33;13.73;;;;;;;17.14;100.00;100903.66;4971969;28;20174;-73
2021/06/06 00:18:56;;;;;;;15.43;14.00;;;;;;;17.12;100.00;100902.41;4971860;28;20217;-72
2021/06/06 00:21:24;;;;;;;15.33;13.50;;;;;;;17.14;100.00;100895.38;4971808;28;20232;-73
2021/06/06 00:23:49;;;;;;;16.20;14.47;;;;;;;17.15;100.00;100898.94;4971937;28;20209;-72
2021/06/06 00:26:15;;;;;;;18.60;13.77;;;;;;;17.13;100.00;100898.47;4971859;28;20316;-73
2021/06/06 00:28:41;;;;;;;14.33;12.83;;;;;;;17.12;100.00;100903.19;4971723;28;20180;-73
2021/06/06 00:31:08;;;;;;;12.93;11.63;;;;;;;17.10;100.00;100904.69;4971887;28;20542;-72
2021/06/06 00:33:35;;;;;;;16.03;13.60;;;;;;;17.09;100.00;100903.91;4971821;28;20185;-72
2021/06/06 00:36:00;;;;;;;17.87;14.47;;;;;;;17.11;100.00;100898.84;4971722;28;20653;-73
2021/06/06 00:38:26;;;;;;;15.63;13.20;;;;;;;17.12;100.00;100905.97;4971734;28;20185;-73
2021/06/06 00:40:51;;;;;;;15.60;13.00;;;;;;;17.13;100.00;100904.81;4971888;28;20174;-72
2021/06/06 00:43:17;;;;;;;19.40;13.87;;;;;;;17.14;100.00;100902.84;4971703;28;20213;-73
2021/06/06 00:45:43;;;;;;;17.40;15.33;;;;;;;17.11;100.00;100898.03;4984384;28;20253;-73
2021/06/06 00:48:09;;;;;;;17.83;15.90;;;;;;;17.15;100.00;100907.22;4993645;28;20569;-73
2021/06/06 00:50:39;;;;;;;13.90;12.53;;;;;;;17.17;100.00;100904.91;4994830;28;20182;-73
2021/06/06 00:53:09;;;;;;;15.80;14.30;;;;;;;17.17;100.00;100911.25;4994824;28;20178;-73
2021/06/06 00:55:36;;;;;;;15.93;13.87;;;;;;;17.16;100.00;100909.63;4994734;28;20541;-73
2021/06/06 00:58:09;;;;;;;17.27;13.60;;;;;;;17.13;100.00;100904.81;4994914;28;20248;-72
2021/06/06 01:00:47;;;;;;;19.93;14.37;;;;;;;17.11;100.00;100914.59;4994881;28;20531;-72
2021/06/06 01:03:13;;;;;;;22.00;16.00;;;;;;;17.09;100.00;100914.94;4994793;28;20176;-73
2021/06/06 01:05:50;;;;;;;19.57;14.60;;;;;;;17.07;100.00;100911.72;4994669;28;20177;-73
2021/06/06 01:08:19;;;;;;;16.60;15.03;;;;;;;16.99;100.00;100920.91;4994572;28;20169;-73
2021/06/06 01:10:47;;;;;;;19.27;15.30;;;;;;;16.98;100.00;100911.00;4994523;28;20244;-73
2021/06/06 01:13:34;;;;;;;19.67;14.73;;;;;;;16.93;100.00;100902.97;4992976;28;20188;-73
2021/06/06 01:16:12;;;;;;;21.83;14.47;;;;;;;16.90;100.00;100907.19;4994552;28;20208;-72
2021/06/06 01:18:44;;;;;;;17.33;13.70;;;;;;;16.90;100.00;100907.19;4994304;28;20342;-73
2021/06/06 01:21:52;;;;;;;19.07;15.63;;;;;;;16.92;100.00;100899.41;4994433;28;20542;-73
2021/06/06 01:24:20;;;;;;;15.47;11.97;;;;;;;16.85;100.00;100906.63;4993197;28;20272;-73
2021/06/06 01:26:55;;;;;;;18.93;14.50;;;;;;;16.81;100.00;100900.97;4994347;28;20197;-72
2021/06/06 01:29:43;;;;;;;18.93;14.70;;;;;;;16.80;100.00;100901.31;4994105;28;20169;-73
2021/06/06 01:32:29;;;;;;;20.00;14.40;;;;;;;16.75;100.00;100905.09;4994168;28;20224;-73
2021/06/06 01:34:59;;;;;;;18.37;15.30;;;;;;;16.74;100.00;100908.19;4994078;28;20300;-73
2021/06/06 01:37:27;;;;;;;34.67;17.70;;;;;;;16.74;100.00;100909.00;4994120;28;20188;-72
2021/06/06 01:40:04;;;;;;;16.43;13.90;;;;;;;16.70;100.00;100908.06;4993883;28;20173;-73
2021/06/06 01:42:37;;;;;;;22.20;14.33;;;;;;;16.69;100.00;100906.47;4993824;28;20212;-72
2021/06/06 01:45:08;;;;;;;24.13;15.90;;;;;;;16.64;100.00;100913.00;4994117;28;20169;-73
2021/06/06 01:47:34;;;;;;;20.57;15.17;;;;;;;16.61;100.00;100897.09;4993892;28;20188;-73
2021/06/06 01:50:09;;;;;;;23.27;15.83;;;;;;;16.60;100.00;100906.50;4993850;28;20188;-72
2021/06/06 01:52:37;;;;;;;18.43;15.27;;;;;;;16.60;100.00;100900.19;4993748;28;20193;-72
2021/06/06 01:55:09;;;;;;;19.40;13.77;;;;;;;16.56;100.00;100905.59;4993796;28;20293;-72
2021/06/06 01:57:37;;;;;;;19.57;15.10;;;;;;;16.57;100.00;100909.97;4993130;28;20538;-73
2021/06/06 02:00:08;;;;;;;26.60;15.63;;;;;;;16.58;100.00;100908.81;4993738;28;20176;-73
2021/06/06 02:02:35;;;;;;;17.73;15.30;;;;;;;16.57;100.00;100909.97;4993500;28;20205;-73
2021/06/06 02:05:00;;;;;;;23.87;13.93;;;;;;;16.51;100.00;100910.53;4993703;28;20177;-73
2021/06/06 02:07:32;;;;;;;21.77;14.20;;;;;;;16.53;100.00;100905.47;4993441;28;20177;-73
2021/06/06 02:10:16;;;;;;;22.10;15.00;;;;;;;16.56;100.00;100900.06;4993431;28;20174;-73
2021/06/06 02:12:48;;;;;;;19.60;14.00;;;;;;;16.53;100.00;100909.03;4991994;28;20185;-73
2021/06/06 02:15:19;;;;;;;19.70;14.67;;;;;;;16.53;100.00;100911.00;4993321;28;20196;-73
2021/06/06 02:17:45;;;;;;;18.70;14.27;;;;;;;16.54;100.00;100907.09;4993311;28;20640;-73
2021/06/06 02:20:13;;;;;;;18.30;13.70;;;;;;;16.53;100.00;100911.00;4993553;28;20181;-73
2021/06/06 02:22:38;;;;;;;18.13;13.20;;;;;;;16.51;100.00;100910.53;4993389;28;20200;-73
2021/06/06 02:25:07;;;;;;;14.03;12.73;;;;;;;16.50;100.00;100915.25;4993301;28;20197;-72
2021/06/06 02:27:37;;;;;;;19.43;14.33;;;;;;;16.47;100.00;100913.13;4991819;28;20181;-73
2021/06/06 02:30:09;;;;;;;11.83;10.70;;;;;;;16.47;100.00;100906.81;4991932;28;20532;-73
2021/06/06 02:32:38;;;;;;;14.53;13.03;;;;;;;16.50;100.00;100909.72;4992985;28;20219;-73
2021/06/06 02:35:17;;;;;;;18.23;14.40;;;;;;;16.46;100.00;100911.53;4993261;28;20181;-73
2021/06/06 02:37:58;;;;;;;18.63;14.67;;;;;;;16.47;100.00;100906.81;4993035;28;20166;-73
2021/06/06 02:40:33;;;;;;;15.37;13.57;;;;;;;16.45;100.00;100909.91;4993065;28;20606;-73
2021/06/06 02:43:24;;;;;;;13.40;11.23;;;;;;;16.44;100.00;100913.03;4993002;28;20214;-73
2021/06/06 02:45:52;;;;;;;14.53;13.20;;;;;;;16.42;100.00;100912.56;4989113;28;20217;-73
2021/06/06 02:48:27;;;;;;;21.43;14.90;;;;;;;16.42;100.00;100910.59;4992743;28;20271;-73
2021/06/06 02:50:57;;;;;;;14.47;11.67;;;;;;;16.42;100.00;100918.88;4979836;28;20612;-73
2021/06/06 02:53:28;;;;;;;26.00;16.13;;;;;;;16.39;100.00;100918.75;4973527;28;20178;-73
2021/06/06 02:56:01;;;;;;;16.83;13.33;;;;;;;16.41;100.00;100916.47;4973415;28;20249;-73
2021/06/06 02:58:34;;;;;;;19.63;15.47;;;;;;;16.36;100.00;100912.78;4973678;28;20178;-73
2021/06/06 03:01:31;;;;;;;13.43;12.27;;;;;;;16.36;100.00;100918.28;4973695;28;20166;-73
2021/06/06 03:04:09;;;;;;;16.20;12.77;;;;;;;16.34;100.00;100922.50;4968942;28;20189;-73
2021/06/06 03:06:39;;;;;;;15.10;12.53;;;;;;;16.32;100.00;100919.28;4973304;28;20189;-73
2021/06/06 03:09:07;;;;;;;12.73;11.00;;;;;;;16.31;100.00;100918.47;4973244;28;20538;-73
2021/06/06 03:11:33;;;;;;;14.50;12.17;;;;;;;16.27;100.00;100914.00;4975941;28;20218;-73
2021/06/06 03:14:07;;;;;;;12.70;11.50;;;;;;;16.27;100.00;100914.78;4981715;28;20292;-73
2021/06/06 03:16:34;;;;;;;22.33;14.73;;;;;;;16.21;100.00;100918.91;4977459;28;20184;-73
2021/06/06 03:19:01;;;;;;;18.07;14.50;;;;;;;16.23;100.00;100921.34;4972437;28;20193;-73
2021/06/06 03:21:34;;;;;;;21.37;16.13;;;;;;;16.22;100.00;100917.78;4972661;28;20204;-73
2021/06/06 03:24:25;;;;;;;18.00;13.50;;;;;;;16.19;100.00;100918.44;4971494;28;20181;-73
2021/06/06 03:26:52;;;;;;;22.00;14.60;;;;;;;16.18;100.00;100921.53;4971474;28;20225;-73
2021/06/06 03:29:22;;;;;;;15.97;12.73;;;;;;;16.20;100.00;100917.31;4972539;28;20309;-73
2021/06/06 03:31:53;;;;;;;26.17;17.77;;;;;;;16.19;100.00;100925.88;4972464;28;20277;-73
2021/06/06 03:34:18;;;;;;;19.97;15.50;;;;;;;16.20;100.00;100922.81;4972461;28;20192;-73
2021/06/06 03:36:45;;;;;;;23.53;16.27;;;;;;;16.20;100.00;100924.75;4972516;28;20178;-73
2021/06/06 03:39:14;;;;;;;23.17;16.83;;;;;;;16.23;100.00;100919.38;4972292;28;20177;-73
2021/06/06 03:41:40;;;;;;;19.17;15.43;;;;;;;16.20;100.00;100919.22;4972361;28;20207;-73
2021/06/06 03:44:05;;;;;;;19.70;16.70;;;;;;;16.17;100.00;100919.91;4972413;28;20185;-73
2021/06/06 03:46:31;;;;;;;17.53;12.93;;;;;;;16.18;100.00;100919.56;4970963;28;20182;-73
2021/06/06 03:48:58;;;;;;;16.90;14.87;;;;;;;16.21;100.00;100927.19;4970797;28;20240;-73
2021/06/06 03:51:25;;;;;;;20.90;16.73;;;;;;;16.21;100.00;100929.94;4972229;28;20591;-73
2021/06/06 03:53:51;;;;;;;22.60;15.97;;;;;;;16.21;100.00;100923.63;4972190;28;20540;-73
2021/06/06 03:56:16;;;;;;;16.23;14.53;;;;;;;16.20;100.00;100927.50;4972183;28;20180;-73
2021/06/06 03:58:43;;;;;;;19.67;14.97;;;;;;;16.18;100.00;100929.78;4972225;28;20702;-73
2021/06/06 04:01:10;;;;;;;25.53;17.30;;;;;;;16.14;100.00;100932.41;4971922;28;20185;-73
2021/06/06 04:03:36;;;;;;;16.07;14.37;;;;;;;16.17;100.00;100933.69;4972121;28;20186;-73
2021/06/06 04:06:03;;;;;;;20.40;15.00;;;;;;;16.17;100.00;100931.75;4972453;28;20184;-73
2021/06/06 04:08:28;;;;;;;24.03;16.47;;;;;;;16.17;100.00;100936.44;4971983;28;20236;-73
2021/06/06 04:10:54;;;;;;;17.80;15.03;;;;;;;16.20;100.00;100933.84;4971953;28;20178;-73
2021/06/06 04:13:20;;;;;;;23.90;16.20;;;;;;;16.20;100.00;100933.00;4971856;28;20177;-73
2021/06/06 04:15:46;;;;;;;22.30;14.73;;;;;;;16.19;100.00;100940.47;4971961;28;20181;-73
2021/06/06 04:18:18;;;;;;;26.90;15.33;;;;;;;16.21;100.00;100945.69;4972209;28;20691;-73
2021/06/06 04:20:44;;;;;;;17.90;15.47;;;;;;;16.20;100.00;100941.28;4976968;28;20660;-73
2021/06/06 04:23:10;;;;;;;19.57;13.53;;;;;;;16.18;100.00;100940.81;4978422;28;20205;-73
2021/06/06 04:25:36;;;;;;;17.40;15.30;;;;;;;16.20;100.00;100935.78;4978408;28;20185;-73
2021/06/06 04:28:02;;;;;;;21.57;14.97;;;;;;;16.18;100.00;100935.31;4978017;28;20721;-73
2021/06/06 04:30:29;;;;;;;27.77;17.43;;;;;;;16.16;100.00;100934.84;4978194;28;20189;-73
2021/06/06 04:32:55;;;;;;;19.57;16.07;;;;;;;16.16;100.00;100941.16;4976910;28;20672;-73
2021/06/06 04:35:20;;;;;;;18.07;16.17;;;;;;;16.17;100.00;100940.00;4978337;28;20186;-72
2021/06/06 04:37:46;;;;;;;21.93;16.77;;;;;;;16.18;100.00;100941.63;4978187;28;20174;-73
2021/06/06 04:40:13;;;;;;;20.43;15.90;;;;;;;16.18;100.00;100946.34;4978150;28;20224;-73
2021/06/06 04:42:39;;;;;;;22.20;15.83;;;;;;;16.22;100.00;100941.78;4978374;28;20267;-73
2021/06/06 04:45:10;;;;;;;23.00;12.83;;;;;;;16.23;100.00;100935.94;4978237;28;20209;-73
2021/06/06 04:47:36;;;;;;;22.37;16.57;;;;;;;16.23;100.00;100949.72;4978258;28;20201;-73
2021/06/06 04:50:03;;;;;;;21.80;15.03;;;;;;;16.25;100.00;100939.16;4978023;28;20181;-73
2021/06/06 04:52:35;;;;;;;22.67;18.27;;;;;;;16.27;100.00;100936.06;4976853;28;20178;-73
2021/06/06 04:55:09;;;;;;;19.10;16.20;;;;;;;16.24;100.00;100942.25;4995526;28;20188;-73
2021/06/06 04:57:35;;;;;;;18.67;16.83;;;;;;;16.23;100.00;100943.38;4997546;28;20245;-73
2021/06/06 05:00:01;;;;;;;19.07;14.00;;;;;;;16.26;100.00;100950.97;4997496;28;20177;-73
2021/06/06 05:02:26;;;;;;;17.67;15.57;;;;;;;16.23;100.00;100946.16;4997458;28;20754;-73
2021/06/06 05:04:51;;;;;;;20.50;15.00;;;;;;;16.25;100.00;100939.16;4997524;28;20672;-73
2021/06/06 05:07:17;;;;;;;27.17;17.20;;;;;;;16.20;100.00;100944.88;4997366;28;20212;-73
2021/06/06 05:09:42;;;;;;;22.43;17.30;;;;;;;16.22;100.00;100948.09;4997184;28;20177;-73
2021/06/06 05:12:08;;;;;;;20.17;16.03;;;;;;;16.25;100.00;100947.41;4997250;28;20661;-73
2021/06/06 05:14:34;;;;;;;20.23;16.57;;;;;;;16.28;100.00;100940.41;4997161;28;20193;-73
2021/06/06 05:16:59;;;;;;;26.17;18.40;;;;;;;16.32;100.00;100946.88;4997318;28;20200;-73
2021/06/06 05:19:24;;;;;;;21.97;16.13;;;;;;;16.33;100.00;100945.72;4995961;28;20176;-73
2021/06/06 05:21:50;;;;;;;23.77;17.97;;;;;;;16.34;100.00;100945.38;4997234;28;20200;-73
2021/06/06 05:24:15;;;;;;;23.70;16.83;;;;;;;16.31;100.00;100946.06;4997252;28;20178;-73
2021/06/06 05:26:48;;;;;;;24.30;16.33;;;;;;;16.34;100.00;100947.31;4997172;28;20649;-73
2021/06/06 05:29:13;;;;;;;22.17;15.33;;;;;;;16.39;100.00;100954.59;4997014;28;20557;-73
2021/06/06 05:31:39;;;;;;;23.20;16.60;;;;;;;16.36;100.00;100956.09;4994576;28;20633;-73
2021/06/06 05:34:04;;;;;;;15.33;13.17;;;;;;;16.33;100.00;100954.00;4992767;28;20187;-73
2021/06/06 05:36:29;;;;;;;17.50;14.00;;;;;;;16.25;100.00;100966.72;4994341;28;20186;-73
2021/06/06 05:38:55;;;;;;;22.33;18.90;;;;;;;16.19;100.00;100959.78;4992697;28;20641;-73
2021/06/06 05:41:20;;;;;;;24.27;17.17;;;;;;;16.14;100.00;100961.94;4994220;28;20228;-73
2021/06/06 05:43:46;;;;;;;15.47;13.80;;;;;;;16.14;100.00;100964.69;4993995;28;20207;-74
2021/06/06 05:46:18;;;;;;;18.93;16.87;;;;;;;16.09;100.00;100957.44;4993974;28;20177;-74
2021/06/06 05:48:43;;;;;;;15.27;13.33;;;;;;;16.08;100.00;100963.31;4993670;28;20181;-74
2021/06/06 05:51:10;;;;;;;21.97;15.93;;;;;;;16.06;100.00;100958.94;4992630;28;20612;-75
2021/06/06 05:53:35;;;;;;;22.10;17.57;;;;;;;16.04;100.00;100969.47;4993822;28;20273;-75
2021/06/06 05:56:04;;;;;;;14.57;12.90;;;;;;;15.99;100.00;100972.41;4992488;28;20181;-75
2021/06/06 05:58:30;;;;;;;18.73;14.47;;;;;;;15.91;100.00;100964.19;4992365;28;20181;-75
2021/06/06 06:00:55;;;;;;;17.77;14.53;;;;;;;15.89;100.00;100970.03;4993675;28;20259;-75
2021/06/06 06:03:21;;;;;;;19.93;14.33;;;;;;;15.90;100.00;100968.09;4993528;28;20209;-74
2021/06/06 06:05:46;;;;;;;18.60;15.07;;;;;;;15.82;100.00;100971.72;4993498;28;20664;-74
2021/06/06 06:08:24;;;;;;;15.33;13.77;;;;;;;15.77;100.00;100972.75;4993357;28;20177;-75
2021/06/06 06:10:51;;;;;;;20.63;14.73;;;;;;;15.76;100.00;100976.59;4993478;28;20700;-74
2021/06/06 06:13:19;;;;;;;24.10;15.90;;;;;;;15.75;100.00;100978.56;4993239;28;20645;-75
2021/06/06 06:15:45;;;;;;;21.03;15.77;;;;;;;15.80;100.00;100979.53;4993259;28;20173;-75
2021/06/06 06:18:12;;;;;;;19.07;17.07;;;;;;;15.73;100.00;100977.28;4993209;28;20695;-75
2021/06/06 06:20:38;;;;;;;19.17;14.47;;;;;;;15.72;100.00;100981.19;4993243;28;20200;-75
2021/06/06 06:23:04;;;;;;;16.73;13.53;;;;;;;15.65;100.00;100978.97;4993144;28;20193;-74
2021/06/06 06:25:29;;;;;;;22.37;15.33;;;;;;;15.60;100.00;100987.41;4993145;28;20170;-77
2021/06/06 06:27:55;;;;;;;21.57;18.30;;;;;;;15.61;100.00;100975.25;4992762;28;20184;-76
2021/06/06 06:30:26;;;;;;;25.47;17.03;;;;;;;15.61;100.00;100985.44;4993024;28;20177;-76
2021/06/06 06:32:51;;;;;;;19.27;15.70;;;;;;;15.61;100.00;100971.69;4993079;28;20161;-74
2021/06/06 06:35:18;;;;;;;15.83;13.67;;;;;;;15.61;100.00;100982.69;4993037;28;20178;-74
2021/06/06 06:37:43;;;;;;;15.57;13.37;;;;;;;15.56;100.00;100978.16;4992911;28;20165;-75
2021/06/06 06:40:12;;;;;;;12.33;10.97;;;;;;;15.50;100.00;100993.25;4992815;28;20637;-74
2021/06/06 06:42:38;;;;;;;15.93;13.80;;;;;;;15.47;100.00;100993.91;4992607;28;20647;-74
2021/06/06 06:45:06;;;;;;;14.70;13.33;;;;;;;15.42;100.00;100992.16;4991401;28;20272;-74
2021/06/06 06:47:32;;;;;;;14.43;11.17;;;;;;;15.37;100.00;100983.28;4992727;28;20181;-74
2021/06/06 06:49:57;;;;;;;20.57;12.27;;;;;;;15.37;100.00;100984.09;4983110;28;20173;-74
2021/06/06 06:52:23;;;;;;;16.67;13.00;;;;;;;15.38;100.00;100988.44;4973323;28;20713;-74
2021/06/06 06:54:48;;;;;;;15.37;12.30;;;;;;;15.34;100.00;100989.44;4973209;28;20257;-74
2021/06/06 06:57:14;;;;;;;11.40;10.30;;;;;;;15.26;100.00;101004.84;4973111;28;20197;-74
2021/06/06 06:59:39;;;;;;;15.03;13.37;;;;;;;15.24;100.00;100998.88;4973127;28;20205;-74
2021/06/06 07:02:05;;;;;;;15.47;13.97;;;;;;;15.21;100.00;101005.03;4972805;28;20202;-74
2021/06/06 07:04:31;;;;;;;14.03;11.50;;;;;;;15.19;100.00;101010.06;4972967;28;20213;-74
2021/06/06 07:06:57;;;;;;;15.77;11.03;;;;;;;15.20;100.00;101014.44;4972939;28;20185;-74
2021/06/06 07:09:25;;;;;;;19.80;11.90;;;;;;;15.22;100.00;101020.41;4972809;28;20184;-74
2021/06/06 07:11:53;;;;;;;19.10;12.50;;;;;;;15.21;100.00;101018.81;4972870;28;20212;-74
2021/06/06 07:14:18;;;;;;;14.30;12.90;;;;;;;15.27;100.00;101016.66;4972621;28;20519;-73
2021/06/06 07:16:44;;;;;;;15.33;13.73;;;;;;;15.29;100.00;101011.63;4977030;28;20221;-74
2021/06/06 07:19:10;;;;;;;14.80;13.33;;;;;;;15.36;100.00;101012.75;4991899;28;20185;-74
2021/06/06 07:21:35;;;;;;;14.90;13.13;;;;;;;15.42;100.00;101014.19;4991830;28;20189;-73
2021/06/06 07:24:01;;;;;;;14.17;12.60;;;;;;;15.42;100.00;101019.69;4991932;28;20174;-73
2021/06/06 07:26:37;;;;;;;13.23;11.37;;;;;;;15.46;100.00;101011.56;4991937;28;20184;-72
2021/06/06 07:29:07;;;;;;;16.17;12.60;;;;;;;15.42;100.00;101018.88;4991612;28;20649;-72
2021/06/06 07:31:33;;;;;;;12.97;10.93;;;;;;;15.43;100.00;101024.06;4991888;28;20162;-72
2021/06/06 07:33:58;;;;;;;13.70;12.40;;;;;;;15.45;100.00;101027.28;4992032;28;20281;-72
2021/06/06 07:36:23;;;;;;;11.13;9.90;;;;;;;15.46;100.00;101028.91;4992046;28;20264;-72
2021/06/06 07:38:51;;;;;;;10.87;9.87;;;;;;;15.49;100.00;101027.47;4991147;28;20181;-72
2021/06/06 07:41:19;;;;;;;12.67;11.47;;;;;;;15.52;100.00;101023.22;4990471;28;20177;-72
2021/06/06 07:43:44;;;;;;;10.67;9.57;;;;;;;15.62;100.00;101026.47;4991723;28;20650;-72
2021/06/06 07:46:11;;;;;;;12.27;11.03;;;;;;;15.70;100.00;101024.78;4991790;28;20184;-73
2021/06/06 07:48:36;;;;;;;12.83;10.57;;;;;;;15.73;100.00;101032.38;4991659;28;20177;-72
2021/06/06 07:51:02;;;;;;;12.13;9.13;;;;;;;15.70;100.00;101031.09;4991485;28;20243;-72
2021/06/06 07:53:28;;;;;;;13.10;10.63;;;;;;;15.71;100.00;101016.19;4991062;28;20553;-72
2021/06/06 07:55:55;;;;;;;10.70;9.70;;;;;;;15.81;100.00;101019.72;4991227;28;20205;-72
2021/06/06 07:58:29;;;;;;;11.67;10.60;;;;;;;15.84;100.00;101021.81;4991343;28;20211;-72
2021/06/06 08:00:55;;;;;;;10.37;9.47;;;;;;;15.86;100.00;101023.09;4991455;28;20207;-72
2021/06/06 08:03:21;;;;;;;11.27;9.50;;;;;;;15.89;100.00;101027.13;4979787;28;20209;-72
2021/06/06 08:05:48;;;;;;;10.00;9.10;;;;;;;15.94;100.00;101021.44;4970601;28;20181;-72
2021/06/06 08:08:15;;;;;;;15.07;8.60;;;;;;;15.98;100.00;101022.38;4971924;28;20170;-72
2021/06/06 08:10:44;;;;;;;7.80;7.03;;;;;;;15.94;100.00;101021.44;4970528;28;20190;-72
2021/06/06 08:13:09;;;;;;;9.87;8.87;;;;;;;15.92;100.00;101023.72;4971710;28;20269;-72
2021/06/06 08:15:35;;;;;;;10.57;9.67;;;;;;;15.90;100.00;101032.28;4971907;28;20644;-72
2021/06/06 08:18:06;;;;;;;10.77;8.53;;;;;;;15.92;100.00;101023.72;4971694;28;20579;-73
2021/06/06 08:20:39;;;;;;;9.00;8.30;;;;;;;15.95;100.00;101023.03;4971549;28;20182;-73
2021/06/06 08:23:07;;;;;;;9.57;8.67;;;;;;;15.92;100.00;101030.03;4986574;28;20212;-72
2021/06/06 08:25:33;;;;;;;9.37;8.47;;;;;;;15.97;100.00;101029.03;4989816;28;20265;-73
2021/06/06 08:27:58;;;;;;;9.27;8.40;;;;;;;15.97;100.00;101024.31;4988524;28;20195;-72
2021/06/06 08:30:29;;;;;;;7.67;6.97;;;;;;;16.09;100.00;101025.56;4989565;28;20185;-72
2021/06/06 08:32:55;;;;;;;8.33;7.63;;;;;;;16.11;100.00;101026.84;4990463;28;20220;-72
2021/06/06 08:35:21;;;;;;;8.50;7.80;;;;;;;16.15;100.00;101030.53;4991201;28;20244;-72
2021/06/06 08:37:46;;;;;;;9.80;9.00;;;;;;;16.23;100.00;101020.59;4991074;28;20181;-72
2021/06/06 08:40:17;;;;;;;7.87;7.13;;;;;;;16.27;100.00;101024.28;4991290;28;20690;-72
2021/06/06 08:42:46;;;;;;;7.80;7.10;;;;;;;16.25;100.00;101023.81;4991274;28;20284;-72
2021/06/06 08:45:28;;;;;;;6.63;5.90;;;;;;;16.29;100.00;101024.75;4989865;28;20193;-73
2021/06/06 08:47:56;;;;;;;7.33;6.40;;;;;;;16.30;100.00;101029.13;4986749;28;20189;-72
2021/06/06 08:50:26;;;;;;;8.13;7.40;;;;;;;16.33;100.00;101032.00;4976284;28;20180;-72
2021/06/06 08:53:26;;;;;;;6.33;5.80;;;;;;;16.35;100.00;101028.94;4991328;28;20256;-73
2021/06/06 08:55:57;;;;;;;6.70;6.13;;;;;;;16.37;100.00;101032.16;4983899;28;20634;-72
2021/06/06 08:58:45;;;;;;;7.43;6.87;;;;;;;16.37;99.90;101034.94;4989690;28;20220;-72
2021/06/06 09:01:16;;;;;;;6.93;6.33;;;;;;;16.43;100.00;101047.34;4990796;28;20653;-71
2021/06/06 09:03:43;;;;;;;7.67;6.93;;;;;;;16.47;100.00;101047.50;4990111;28;20657;-72
2021/06/06 09:06:17;;;;;;;7.70;7.00;;;;;;;16.48;100.00;101047.16;4993671;28;20656;-72
2021/06/06 09:08:43;;;;;;;6.97;6.37;;;;;;;16.55;100.00;101049.38;4999919;28;20601;-72
2021/06/06 09:11:13;;;;;;;7.93;7.23;;;;;;;16.56;100.00;101051.00;5002742;28;20181;-73
2021/06/06 09:13:38;;;;;;;8.03;7.33;;;;;;;16.62;100.00;101042.16;4997685;28;20200;-72
2021/06/06 09:16:16;;;;;;;6.80;6.20;;;;;;;16.75;100.00;101042.25;4993663;28;20189;-72
2021/06/06 09:18:47;;;;;;;6.30;5.80;;;;;;;16.79;100.00;101048.75;4994120;28;20181;-71
2021/06/06 09:21:19;;;;;;;5.60;5.20;;;;;;;16.75;99.35;101051.34;4992460;28;20188;-75
2021/06/06 09:23:51;;;;;;;8.27;7.47;;;;;;;16.79;99.24;101048.75;4993733;28;20173;-72
2021/06/06 09:26:17;;;;;;;5.57;5.07;;;;;;;16.84;98.71;101052.09;4994323;28;20269;-72
2021/06/06 09:28:45;;;;;;;5.77;5.30;;;;;;;16.82;97.44;101042.53;4993838;28;20657;-72
2021/06/06 09:31:23;;;;;;;6.23;5.70;;;;;;;16.87;97.49;101045.06;4995712;28;20220;-72
2021/06/06 09:33:59;;;;;;;5.37;4.87;;;;;;;16.91;96.83;101048.75;4995554;28;20177;-71
2021/06/06 09:36:29;;;;;;;7.00;6.50;;;;;;;16.97;97.26;101041.91;4983309;28;20711;-71
2021/06/06 09:39:22;;;;;;;5.47;5.07;;;;;;;17.09;97.30;101039.19;4985831;28;20177;-72
2021/06/06 09:41:58;;;;;;;5.13;4.63;;;;;;;17.15;96.12;101046.09;4971695;28;20220;-71
2021/06/06 09:44:31;;;;;;;4.87;4.57;;;;;;;17.14;95.27;101044.47;4984816;28;20201;-74
2021/06/06 09:47:15;;;;;;;4.67;4.27;;;;;;;17.13;94.73;101045.63;4973117;28;20650;-74
2021/06/06 09:49:45;;;;;;;5.90;5.50;;;;;;;17.18;95.06;101047.34;4974067;28;20196;-75
2021/06/06 09:52:44;;;;;;;5.80;5.30;;;;;;;17.29;94.68;101051.31;4973989;28;20546;-74
2021/06/06 09:55:26;;;;;;;5.60;5.20;;;;;;;17.22;93.34;101049.13;4983689;28;20196;-73
2021/06/06 09:58:05;;;;;;;4.90;4.50;;;;;;;17.22;93.64;101048.31;4989660;28;20187;-73
2021/06/06 10:00:37;;;;;;;5.87;5.47;;;;;;;17.16;93.98;101056.00;4985376;28;20224;-74
2021/06/06 10:03:25;;;;;;;5.33;4.83;;;;;;;17.17;94.38;101045.75;4993475;28;20556;-74
2021/06/06 10:05:52;;;;;;;6.60;6.10;;;;;;;17.24;94.20;101054.28;4993270;28;20518;-75
2021/06/06 10:08:24;;;;;;;6.20;5.70;;;;;;;17.30;94.08;101046.59;4992926;28;20178;-74
2021/06/06 10:10:53;;;;;;;5.20;4.80;;;;;;;17.31;93.22;101050.97;4991768;28;20186;-74
2021/06/06 10:13:24;;;;;;;5.77;5.27;;;;;;;17.26;93.74;101057.53;4992606;28;20185;-74
2021/06/06 10:16:02;;;;;;;5.63;5.23;;;;;;;17.25;93.79;101066.97;4988998;28;20181;-74
2021/06/06 10:18:32;;;;;;;5.80;5.30;;;;;;;17.28;94.69;101065.47;4991929;28;20221;-74
2021/06/06 10:21:16;;;;;;;7.47;6.87;;;;;;;17.31;94.63;101059.25;4993245;28;20228;-74
2021/06/06 10:23:45;;;;;;;6.40;5.90;;;;;;;17.37;94.33;101072.50;4993590;28;20181;-74
2021/06/06 10:26:24;;;;;;;6.43;5.93;;;;;;;17.49;93.41;101061.47;4993186;28;20757;-74
2021/06/06 10:28:53;;;;;;;7.77;7.17;;;;;;;17.61;92.84;101071.72;4992788;28;20176;-75
2021/06/06 10:31:21;;;;;;;5.90;5.13;;;;;;;17.53;92.46;101067.13;4993051;28;20184;-74
2021/06/06 10:34:24;;;;;;;6.37;5.87;;;;;;;17.46;93.06;101064.13;4993080;28;20178;-75
2021/06/06 10:36:50;;;;;;;7.80;7.20;;;;;;;17.39;92.75;101072.19;4989429;28;20197;-74
2021/06/06 10:39:28;;;;;;;6.33;5.73;;;;;;;17.21;92.46;101068.75;4992595;28;20180;-74
2021/06/06 10:42:00;;;;;;;8.30;7.60;;;;;;;17.10;93.88;101076.69;4992515;28;20212;-74
2021/06/06 10:44:42;;;;;;;6.40;5.93;;;;;;;17.12;94.38;101077.16;4973326;28;20177;-74
2021/06/06 10:47:30;;;;;;;6.97;6.43;;;;;;;17.12;95.31;101081.88;4971910;28;20476;-75
2021/06/06 10:50:11;;;;;;;5.87;5.47;;;;;;;17.10;94.76;101082.22;4967308;28;20285;-74
2021/06/06 10:52:38;;;;;;;7.10;6.50;;;;;;;17.08;94.77;101084.50;4973472;28;20178;-74
2021/06/06 10:55:27;;;;;;;7.47;6.87;;;;;;;17.00;93.33;101085.38;4973230;28;20221;-74
2021/06/06 10:57:53;;;;;;;7.50;6.90;;;;;;;17.05;94.20;101087.13;4972857;28;20240;-74
2021/06/06 11:00:34;;;;;;;6.90;6.40;;;;;;;17.02;93.94;101085.84;4972928;28;20639;-74
2021/06/06 11:03:05;;;;;;;6.10;5.70;;;;;;;17.00;93.44;101085.38;4972900;28;20685;-74
2021/06/06 11:05:39;;;;;;;6.30;5.70;;;;;;;17.04;93.13;101075.28;4973121;28;20190;-74
2021/06/06 11:08:28;;;;;;;7.03;6.47;;;;;;;17.04;93.09;101086.31;4972737;28;20188;-74
2021/06/06 11:10:59;;;;;;;7.37;6.77;;;;;;;17.08;93.63;101089.22;4971688;28;20244;-74
2021/06/06 11:13:33;;;;;;;6.63;6.13;;;;;;;17.02;93.86;101085.84;4972790;28;20630;-74
2021/06/06 11:16:05;;;;;;;7.13;6.63;;;;;;;16.95;93.60;101091.13;4972815;28;20182;-74
2021/06/06 11:18:51;;;;;;;6.87;6.27;;;;;;;16.90;93.67;101086.59;4972549;28;20197;-74
2021/06/06 11:21:39;;;;;;;7.00;6.40;;;;;;;16.98;94.57;101084.94;4972636;28;20253;-74